createdAt,value
2018-04-12T00:01:27.415Z,12.33
2018-04-12T00:03:54.511Z,12.13
2018-04-12T00:06:20.835Z,12.77
2018-04-12T00:08:47.172Z,13.43
2018-04-12T00:11:13.515Z,13.80
2018-04-12T00:13:40.015Z,13.30
2018-04-12T00:16:07.131Z,12.40
2018-04-12T00:18:33.495Z,13.93
2018-04-12T00:20:59.917Z,13.17
2018-04-12T00:23:26.283Z,12.13
2018-04-12T00:25:52.608Z,12.87
2018-04-12T00:28:18.979Z,13.70
2018-04-12T00:30:45.359Z,13.80
2018-04-12T00:33:12.435Z,13.47
2018-04-12T00:35:39.659Z,14.43
2018-04-12T00:38:06.036Z,12.90
2018-04-12T00:40:32.409Z,12.07
2018-04-12T00:42:58.771Z,14.50
2018-04-12T00:45:25.109Z,13.33
2018-04-12T00:47:51.427Z,14.83
2018-04-12T00:50:17.746Z,14.97
2018-04-12T00:52:44.090Z,11.90
2018-04-12T00:55:11.155Z,13.67
2018-04-12T00:57:38.211Z,12.67
2018-04-12T01:00:05.130Z,13.57
2018-04-12T01:02:32.951Z,16.17
2018-04-12T01:04:59.307Z,13.40
2018-04-12T01:07:25.627Z,12.27
2018-04-12T01:09:52.694Z,13.30
2018-04-12T01:12:19.075Z,12.83
2018-04-12T01:14:45.439Z,15.87
2018-04-12T01:17:11.749Z,15.53
2018-04-12T01:19:38.114Z,16.40
2018-04-12T01:22:04.787Z,16.63
2018-04-12T01:24:32.566Z,16.50
2018-04-12T01:26:58.894Z,16.50
2018-04-12T01:29:25.962Z,14.77
2018-04-12T01:31:52.316Z,18.03
2018-04-12T01:34:19.438Z,17.60
2018-04-12T01:36:45.905Z,16.77
2018-04-12T01:39:13.723Z,18.20
2018-04-12T01:41:40.103Z,18.17
2018-04-12T01:44:07.210Z,18.50
2018-04-12T01:46:34.300Z,18.27
2018-04-12T01:49:00.610Z,18.20
2018-04-12T01:51:27.016Z,19.77
2018-04-12T01:53:54.885Z,18.10
2018-04-12T01:56:22.755Z,18.17
2018-04-12T01:58:49.074Z,19.40
2018-04-12T02:01:15.414Z,18.57
2018-04-12T02:03:41.753Z,17.37
2018-04-12T02:06:08.109Z,20.50
2018-04-12T02:08:34.443Z,18.70
2018-04-12T02:11:00.787Z,22.30
2018-04-12T02:13:27.199Z,19.23
2018-04-12T02:15:54.336Z,18.77
2018-04-12T02:18:20.699Z,23.43
2018-04-12T02:20:47.015Z,22.50
2018-04-12T02:23:13.363Z,22.27
2018-04-12T02:25:39.695Z,22.47
2018-04-12T02:28:06.021Z,24.47
2018-04-12T02:30:32.359Z,27.30
2018-04-12T02:32:58.678Z,29.10
2018-04-12T02:35:25.015Z,28.20
2018-04-12T02:37:52.114Z,24.07
2018-04-12T02:40:18.423Z,22.77
2018-04-12T02:42:45.518Z,23.93
2018-04-12T02:45:11.831Z,24.70
2018-04-12T02:47:38.186Z,23.77
2018-04-12T02:50:04.958Z,26.93
2018-04-12T02:52:31.429Z,28.50
2018-04-12T02:54:57.791Z,31.13
2018-04-12T02:57:24.127Z,35.53
2018-04-12T02:59:51.246Z,36.97
2018-04-12T03:02:17.570Z,44.77
2018-04-12T03:04:43.923Z,43.43
2018-04-12T03:07:10.275Z,48.43
2018-04-12T03:09:36.610Z,42.27
2018-04-12T03:12:03.062Z,40.07
2018-04-12T03:14:29.399Z,42.07
2018-04-12T03:16:55.723Z,44.07
2018-04-12T03:19:22.054Z,45.97
2018-04-12T03:21:49.103Z,41.77
2018-04-12T03:24:15.455Z,47.20
2018-04-12T03:26:41.779Z,44.80
2018-04-12T03:29:08.142Z,44.03
2018-04-12T03:31:34.461Z,42.63
2018-04-12T03:34:01.544Z,39.53
2018-04-12T03:36:27.921Z,40.80
2018-04-12T03:38:54.263Z,44.47
2018-04-12T03:41:21.378Z,44.40
2018-04-12T03:43:48.447Z,43.57
2018-04-12T03:46:15.494Z,45.00
2018-04-12T03:48:42.601Z,40.80
2018-04-12T03:51:09.630Z,40.23
2018-04-12T03:53:35.986Z,39.27
2018-04-12T03:56:02.362Z,40.53
2018-04-12T03:58:28.687Z,43.10
2018-04-12T04:00:55.267Z,39.87
2018-04-12T04:03:21.583Z,39.30
2018-04-12T04:05:47.975Z,39.73
2018-04-12T04:08:15.027Z,37.67
2018-04-12T04:10:41.383Z,39.07
2018-04-12T04:13:08.446Z,36.10
2018-04-12T04:15:47.167Z,42.00
2018-04-12T04:18:25.918Z,40.30
2018-04-12T04:21:17.483Z,41.53
2018-04-12T04:23:43.898Z,44.07
2018-04-12T04:26:10.215Z,44.33
2018-04-12T04:28:37.286Z,40.70
2018-04-12T04:31:03.614Z,46.43
2018-04-12T04:33:29.952Z,46.97
2018-04-12T04:35:56.319Z,47.53
2018-04-12T04:38:22.687Z,46.77
2018-04-12T04:40:49.796Z,49.33
2018-04-12T04:43:16.174Z,56.83
2018-04-12T04:45:42.580Z,56.97
2018-04-12T04:48:08.946Z,50.70
2018-04-12T04:50:35.323Z,54.10
2018-04-12T04:53:01.698Z,60.27
2018-04-12T04:55:28.174Z,56.77
2018-04-12T04:57:55.336Z,53.83
2018-04-12T05:00:21.855Z,60.57
2018-04-12T05:02:50.559Z,54.43
2018-04-12T05:05:16.959Z,57.27
2018-04-12T05:07:43.400Z,54.77
2018-04-12T05:10:10.539Z,57.37
2018-04-12T05:12:37.050Z,59.77
2018-04-12T05:15:03.612Z,57.07
2018-04-12T05:17:29.971Z,57.83
2018-04-12T05:19:56.407Z,53.40
2018-04-12T05:22:22.885Z,58.93
2018-04-12T05:24:49.525Z,53.70
2018-04-12T05:27:16.675Z,59.23
2018-04-12T05:29:43.963Z,58.60
2018-04-12T05:32:10.491Z,57.10
2018-04-12T05:34:36.922Z,59.90
2018-04-12T05:37:04.159Z,63.87
2018-04-12T05:39:30.526Z,62.37
2018-04-12T05:41:56.901Z,69.17
2018-04-12T05:44:24.037Z,61.90
2018-04-12T05:46:50.435Z,61.10
2018-04-12T05:49:16.863Z,66.70
2018-04-12T05:51:43.987Z,67.27
2018-04-12T05:54:10.363Z,68.57
2018-04-12T05:56:37.493Z,69.33
2018-04-12T05:59:03.859Z,71.17
2018-04-12T06:01:31.702Z,60.97
2018-04-12T06:03:58.951Z,67.30
2018-04-12T06:06:25.349Z,71.60
2018-04-12T06:08:51.931Z,67.93
2018-04-12T06:11:19.043Z,73.17
2018-04-12T06:13:45.483Z,71.23
2018-04-12T06:16:11.854Z,76.90
2018-04-12T06:18:38.346Z,71.67
2018-04-12T06:21:04.730Z,78.40
2018-04-12T06:23:31.143Z,75.03
2018-04-12T06:25:57.533Z,78.13
2018-04-12T06:28:23.933Z,85.80
2018-04-12T06:30:51.071Z,83.73
2018-04-12T06:33:18.240Z,83.07
2018-04-12T06:35:44.651Z,76.80
2018-04-12T06:38:11.232Z,82.50
2018-04-12T06:40:37.684Z,84.60
2018-04-12T06:43:04.856Z,81.53
2018-04-12T06:45:31.286Z,84.50
2018-04-12T06:47:57.644Z,82.60
2018-04-12T06:50:24.092Z,84.93
2018-04-12T06:52:50.539Z,77.80
2018-04-12T06:55:16.981Z,81.37
2018-04-12T06:57:43.359Z,84.77
2018-04-12T07:00:10.518Z,83.57
2018-04-12T07:02:36.876Z,79.40
2018-04-12T07:05:03.436Z,76.13
2018-04-12T07:07:30.570Z,74.40
2018-04-12T07:09:56.964Z,79.60
2018-04-12T07:12:23.449Z,78.07
2018-04-12T07:14:50.050Z,73.47
2018-04-12T07:17:17.251Z,70.97
2018-04-12T07:19:43.686Z,71.27
2018-04-12T07:22:10.043Z,71.80
2018-04-12T07:24:37.284Z,69.63
2018-04-12T07:27:04.408Z,69.80
2018-04-12T07:29:30.767Z,67.63
2018-04-12T07:31:57.177Z,61.47
2018-04-12T07:34:23.671Z,62.23
2018-04-12T07:36:50.045Z,63.90
2018-04-12T07:39:16.584Z,60.60
2018-04-12T07:41:43.691Z,58.37
2018-04-12T07:44:10.071Z,59.50
2018-04-12T07:46:36.523Z,60.43
2018-04-12T07:49:03.657Z,58.57
2018-04-12T07:51:30.058Z,59.03
2018-04-12T07:53:57.170Z,54.83
2018-04-12T07:56:23.539Z,53.93
2018-04-12T07:58:49.935Z,58.63
2018-04-12T08:01:16.333Z,53.63
2018-04-12T08:03:43.486Z,59.30
2018-04-12T08:06:09.910Z,58.30
2018-04-12T08:08:36.277Z,55.90
2018-04-12T08:11:04.675Z,55.87
2018-04-12T08:13:32.043Z,57.43
2018-04-12T08:15:58.478Z,54.47
2018-04-12T08:18:24.883Z,53.90
2018-04-12T08:20:52.019Z,51.40
2018-04-12T08:23:19.902Z,52.77
2018-04-12T08:25:47.380Z,46.67
2018-04-12T08:28:13.738Z,49.20
2018-04-12T08:30:40.816Z,50.37
2018-04-12T08:33:07.218Z,46.10
2018-04-12T08:35:33.580Z,48.27
2018-04-12T08:38:00.710Z,46.73
2018-04-12T08:40:27.088Z,45.93
2018-04-12T08:42:54.327Z,49.17
2018-04-12T08:45:20.743Z,47.90
2018-04-12T08:47:47.164Z,49.10
2018-04-12T08:50:13.556Z,52.77
2018-04-12T08:52:39.955Z,48.83
2018-04-12T08:55:07.070Z,49.20
2018-04-12T08:57:33.858Z,48.80
2018-04-12T09:00:00.422Z,47.33
2018-04-12T09:02:27.527Z,49.87
2018-04-12T09:04:53.895Z,50.03
2018-04-12T09:07:20.313Z,46.20
2018-04-12T09:09:46.678Z,50.57
2018-04-12T09:12:13.182Z,49.30
2018-04-12T09:14:39.563Z,51.43
2018-04-12T09:17:05.920Z,53.20
2018-04-12T09:19:32.311Z,54.13
2018-04-12T09:21:58.675Z,50.00
2018-04-12T09:24:25.808Z,53.47
2018-04-12T09:26:52.191Z,55.20
2018-04-12T09:29:18.685Z,54.57
2018-04-12T09:31:45.095Z,52.40
2018-04-12T09:34:12.247Z,55.07
2018-04-12T09:36:39.396Z,54.07
2018-04-12T09:39:05.812Z,52.27
2018-04-12T09:41:32.234Z,51.90
2018-04-12T09:43:58.663Z,52.80
2018-04-12T09:46:25.091Z,53.80
2018-04-12T09:48:51.530Z,51.50
2018-04-12T09:51:17.886Z,47.97
2018-04-12T09:53:44.264Z,50.13
2018-04-12T09:56:10.680Z,48.63
2018-04-12T09:58:37.050Z,46.03
2018-04-12T10:01:10.175Z,46.23
2018-04-12T10:03:36.570Z,45.70
2018-04-12T10:06:04.936Z,46.90
2018-04-12T10:08:31.467Z,49.93
2018-04-12T10:10:57.854Z,48.70
2018-04-12T10:13:24.366Z,51.80
2018-04-12T10:15:50.763Z,48.97
2018-04-12T10:18:17.883Z,46.83
2018-04-12T10:20:44.250Z,49.60
2018-04-12T10:23:10.653Z,53.00
2018-04-12T10:25:37.109Z,49.93
2018-04-12T10:28:04.082Z,49.70
2018-04-12T10:30:30.635Z,48.53
2018-04-12T10:32:57.031Z,50.97
2018-04-12T10:35:23.439Z,50.37
2018-04-12T10:37:50.563Z,51.30
2018-04-12T10:40:16.978Z,48.80
2018-04-12T10:42:44.086Z,51.20
2018-04-12T10:45:10.795Z,51.27
2018-04-12T10:47:37.155Z,49.23
2018-04-12T10:50:03.999Z,47.83
2018-04-12T10:52:30.415Z,49.03
2018-04-12T10:54:56.831Z,44.30
2018-04-12T10:57:23.991Z,46.07
2018-04-12T10:59:51.120Z,46.23
2018-04-12T11:02:17.526Z,44.27
2018-04-12T11:04:43.960Z,45.17
2018-04-12T11:07:10.638Z,45.90
2018-04-12T11:09:37.038Z,46.43
2018-04-12T11:12:03.511Z,43.60
2018-04-12T11:14:29.910Z,42.27
2018-04-12T11:16:57.032Z,42.23
2018-04-12T11:19:23.403Z,42.23
2018-04-12T11:21:49.831Z,42.93
2018-04-12T11:24:16.432Z,41.00
2018-04-12T11:26:42.827Z,42.13
2018-04-12T11:29:09.196Z,44.80
2018-04-12T11:31:35.598Z,42.90
2018-04-12T11:34:02.787Z,40.60
2018-04-12T11:36:29.236Z,42.90
2018-04-12T11:38:56.358Z,40.50
2018-04-12T11:41:22.778Z,42.40
2018-04-12T11:43:49.147Z,42.57
2018-04-12T11:46:15.512Z,43.47
2018-04-12T11:48:41.906Z,39.33
2018-04-12T11:51:08.275Z,40.00
2018-04-12T11:53:34.670Z,42.60
2018-04-12T11:56:01.050Z,40.40
2018-04-12T11:58:27.463Z,38.53
2018-04-12T12:00:53.890Z,40.87
2018-04-12T12:03:20.267Z,40.77
2018-04-12T12:05:46.647Z,38.50
2018-04-12T12:08:13.805Z,38.47
2018-04-12T12:10:40.930Z,40.63
2018-04-12T12:13:08.126Z,39.40
2018-04-12T12:15:34.524Z,38.00
2018-04-12T12:18:00.864Z,38.00
2018-04-12T12:20:28.036Z,38.60
2018-04-12T12:22:54.439Z,37.67
2018-04-12T12:25:20.815Z,35.80
2018-04-12T12:27:47.239Z,36.00
2018-04-12T12:30:13.647Z,36.53
2018-04-12T12:32:40.020Z,34.40
2018-04-12T12:35:06.426Z,37.17
2018-04-12T12:37:32.788Z,36.30
2018-04-12T12:39:59.150Z,33.50
2018-04-12T12:42:25.526Z,36.13
2018-04-12T12:44:51.903Z,33.90
2018-04-12T12:47:18.290Z,34.93
2018-04-12T12:49:44.659Z,39.03
2018-04-12T12:52:11.766Z,39.10
2018-04-12T12:54:38.138Z,37.07
2018-04-12T12:57:04.515Z,36.10
2018-04-12T12:59:30.935Z,38.73
2018-04-12T13:01:57.349Z,38.50
2018-04-12T13:04:23.777Z,37.80
2018-04-12T13:06:50.151Z,36.53
2018-04-12T13:09:16.606Z,37.37
2018-04-12T13:11:42.960Z,40.40
2018-04-12T13:14:09.356Z,38.77
2018-04-12T13:16:38.132Z,38.67
2018-04-12T13:19:04.479Z,39.50
2018-04-12T13:21:30.856Z,38.67
2018-04-12T13:23:57.274Z,41.33
2018-04-12T13:26:23.673Z,41.30
2018-04-12T13:28:50.838Z,40.10
2018-04-12T13:31:17.236Z,40.63
2018-04-12T13:33:43.624Z,40.87
2018-04-12T13:36:10.035Z,41.87
2018-04-12T13:38:36.423Z,40.23
2018-04-12T13:41:02.820Z,41.97
2018-04-12T13:43:29.160Z,38.40
2018-04-12T13:45:55.639Z,35.77
2018-04-12T13:48:22.742Z,34.73
2018-04-12T13:50:49.140Z,33.30
2018-04-12T13:53:15.489Z,33.63
2018-04-12T13:55:42.605Z,32.80
2018-04-12T13:58:09.016Z,33.17
2018-04-12T14:00:35.451Z,35.97
2018-04-12T14:03:01.834Z,31.97
2018-04-12T14:05:28.172Z,33.27
2018-04-12T14:07:54.659Z,33.83
2018-04-12T14:10:21.002Z,33.63
2018-04-12T14:12:47.396Z,33.30
2018-04-12T14:15:13.854Z,34.70
2018-04-12T14:17:40.938Z,35.27
2018-04-12T14:20:07.304Z,32.53
2018-04-12T14:22:33.638Z,34.93
2018-04-12T14:24:59.974Z,34.93
2018-04-12T14:27:26.358Z,35.97
2018-04-12T14:29:52.693Z,35.17
2018-04-12T14:32:19.051Z,48.97
2018-04-12T14:34:46.239Z,33.43
2018-04-12T14:37:13.364Z,35.10
2018-04-12T14:39:39.744Z,35.37
2018-04-12T14:42:06.167Z,32.37
2018-04-12T14:44:32.563Z,35.43
2018-04-12T14:46:59.018Z,33.87
2018-04-12T14:49:26.107Z,34.20
2018-04-12T14:51:52.509Z,37.40
2018-04-12T14:54:19.614Z,35.67
2018-04-12T14:56:46.009Z,34.80
2018-04-12T14:59:12.399Z,33.60
2018-04-12T15:01:39.533Z,31.60
2018-04-12T15:04:05.872Z,32.77
2018-04-12T15:06:32.259Z,32.70
2018-04-12T15:08:58.632Z,33.73
2018-04-12T15:11:25.006Z,33.73
2018-04-12T15:13:51.323Z,32.80
2018-04-12T15:16:17.684Z,35.20
2018-04-12T15:18:44.115Z,31.50
2018-04-12T15:21:11.230Z,34.07
2018-04-12T15:23:37.608Z,29.57
2018-04-12T15:26:04.783Z,32.93
2018-04-12T15:28:31.947Z,26.80
2018-04-12T15:30:59.064Z,23.03
2018-04-12T15:33:25.487Z,24.77
2018-04-12T15:35:51.867Z,24.70
2018-04-12T15:38:18.242Z,20.50
2018-04-12T15:40:44.627Z,18.87
2018-04-12T15:43:11.744Z,22.23
2018-04-12T15:45:38.080Z,25.20
2018-04-12T15:48:05.359Z,20.60
2018-04-12T15:50:31.739Z,21.20
2018-04-12T15:52:58.141Z,17.80
2018-04-12T15:55:24.667Z,18.93
2018-04-12T15:57:51.135Z,19.30
2018-04-12T16:00:17.589Z,20.13
2018-04-12T16:02:43.952Z,18.23
2018-04-12T16:05:10.290Z,18.40
2018-04-12T16:07:36.627Z,17.80
2018-04-12T16:10:03.506Z,16.93
2018-04-12T16:12:29.885Z,16.30
2018-04-12T16:14:56.980Z,17.60
2018-04-12T16:17:23.351Z,17.50
2018-04-12T16:19:49.735Z,16.53
2018-04-12T16:22:16.857Z,17.03
2018-04-12T16:24:43.239Z,16.63
2018-04-12T16:27:09.764Z,18.67
2018-04-12T16:29:36.228Z,17.30
2018-04-12T16:32:02.989Z,17.10
2018-04-12T16:34:30.149Z,16.30
2018-04-12T16:36:56.518Z,16.00
2018-04-12T16:39:22.909Z,17.23
2018-04-12T16:41:49.270Z,17.33
2018-04-12T16:44:15.643Z,15.97
2018-04-12T16:46:42.003Z,17.40
2018-04-12T16:49:08.424Z,16.60
2018-04-12T16:51:34.863Z,16.40
2018-04-12T16:54:01.256Z,15.47
2018-04-12T16:56:27.706Z,16.23
2018-04-12T16:58:54.090Z,16.17
2018-04-12T17:01:20.450Z,19.30
2018-04-12T17:03:46.830Z,16.93
2018-04-12T17:06:13.249Z,16.70
2018-04-12T17:08:39.635Z,16.77
2018-04-12T17:11:06.012Z,17.83
2018-04-12T17:13:32.463Z,16.63
2018-04-12T17:16:01.656Z,16.43
2018-04-12T17:18:28.024Z,15.90
2018-04-12T17:20:55.226Z,18.20
2018-04-12T17:23:21.630Z,16.70
2018-04-12T17:25:48.754Z,17.17
2018-04-12T17:28:15.227Z,17.90
2018-04-12T17:30:42.400Z,15.63
2018-04-12T17:33:09.565Z,17.63
2018-04-12T17:35:36.007Z,17.70
2018-04-12T17:38:02.524Z,17.93
2018-04-12T17:40:29.642Z,20.63
2018-04-12T17:42:57.502Z,19.97
2018-04-12T17:45:24.778Z,20.23
2018-04-12T17:47:51.167Z,24.20
2018-04-12T17:50:18.278Z,22.00
2018-04-12T17:52:44.676Z,23.03
2018-04-12T17:55:11.046Z,22.17
2018-04-12T17:57:37.538Z,26.20
2018-04-12T18:00:04.744Z,25.30
2018-04-12T18:02:31.153Z,26.13
2018-04-12T18:04:57.507Z,23.20
2018-04-12T18:07:23.933Z,27.90
2018-04-12T18:09:50.310Z,29.10
2018-04-12T18:12:16.731Z,26.63
2018-04-12T18:14:43.299Z,28.77
2018-04-12T18:17:09.752Z,28.50
2018-04-12T18:19:36.315Z,28.90
2018-04-12T18:22:03.040Z,31.97
2018-04-12T18:24:29.380Z,29.40
2018-04-12T18:26:55.779Z,33.40
2018-04-12T18:29:22.876Z,37.00
2018-04-12T18:31:49.299Z,34.33
2018-04-12T18:34:15.694Z,32.47
2018-04-12T18:36:42.109Z,34.73
2018-04-12T18:39:08.546Z,36.00
2018-04-12T18:41:35.002Z,35.10
2018-04-12T18:44:01.429Z,36.67
2018-04-12T18:46:34.763Z,37.57
2018-04-12T18:49:01.160Z,33.60
2018-04-12T18:51:27.554Z,33.10
2018-04-12T18:53:53.991Z,36.20
2018-04-12T18:56:20.563Z,37.50
2018-04-12T18:58:47.750Z,39.30
2018-04-12T19:01:14.111Z,41.70
2018-04-12T19:03:40.470Z,43.00
2018-04-12T19:06:07.555Z,36.90
2018-04-12T19:08:33.921Z,37.60
2018-04-12T19:11:00.263Z,43.30
2018-04-12T19:13:26.615Z,42.07
2018-04-12T19:15:52.935Z,43.97
2018-04-12T19:18:19.291Z,42.83
2018-04-12T19:20:45.612Z,43.60
2018-04-12T19:23:11.951Z,40.67
2018-04-12T19:25:38.266Z,45.07
2018-04-12T19:28:05.341Z,40.67
2018-04-12T19:30:32.413Z,34.37
2018-04-12T19:32:58.762Z,36.57
2018-04-12T19:35:25.125Z,40.10
2018-04-12T19:37:51.458Z,39.53
2018-04-12T19:40:17.872Z,38.07
2018-04-12T19:42:44.951Z,43.07
2018-04-12T19:45:12.039Z,46.17
2018-04-12T19:47:38.379Z,39.00
2018-04-12T19:50:05.264Z,38.43
2018-04-12T19:52:32.354Z,44.67
2018-04-12T19:54:59.453Z,40.77
2018-04-12T19:57:25.772Z,36.47
2018-04-12T19:59:52.167Z,41.40
2018-04-12T20:02:18.479Z,37.50
2018-04-12T20:04:44.847Z,44.33
2018-04-12T20:07:11.215Z,42.70
2018-04-12T20:09:37.554Z,38.20
2018-04-12T20:12:04.616Z,43.07
2018-04-12T20:14:31.727Z,36.73
2018-04-12T20:16:58.081Z,41.57
2018-04-12T20:19:24.650Z,46.97
2018-04-12T20:21:51.742Z,43.90
2018-04-12T20:24:18.090Z,42.77
2018-04-12T20:26:44.439Z,45.10
2018-04-12T20:29:10.765Z,43.60
2018-04-12T20:31:37.839Z,43.47
2018-04-12T20:34:04.799Z,48.77
2018-04-12T20:36:31.215Z,48.23
2018-04-12T20:38:57.554Z,49.30
2018-04-12T20:41:24.684Z,43.77
2018-04-12T20:43:51.003Z,46.33
2018-04-12T20:46:17.344Z,46.03
2018-04-12T20:48:44.415Z,43.30
2018-04-12T20:51:10.770Z,42.70
2018-04-12T20:53:37.124Z,39.87
2018-04-12T20:56:03.995Z,45.23
2018-04-12T20:58:30.363Z,45.40
2018-04-12T21:00:57.448Z,41.97
2018-04-12T21:03:23.777Z,44.77
2018-04-12T21:05:50.135Z,42.87
2018-04-12T21:08:16.515Z,48.60
2018-04-12T21:10:42.867Z,56.30
2018-04-12T21:13:09.207Z,57.27
2018-04-12T21:15:36.340Z,49.80
2018-04-12T21:18:02.737Z,52.37
2018-04-12T21:20:29.082Z,48.07
2018-04-12T21:22:55.602Z,47.77
2018-04-12T21:25:21.922Z,48.07
2018-04-12T21:27:48.242Z,49.83
2018-04-12T21:30:14.567Z,48.37
2018-04-12T21:32:40.929Z,50.27
2018-04-12T21:35:07.286Z,50.00
2018-04-12T21:37:33.606Z,49.50
2018-04-12T21:39:59.918Z,44.97
2018-04-12T21:42:26.254Z,45.70
2018-04-12T21:44:52.570Z,41.20
2018-04-12T21:47:18.930Z,44.93
2018-04-12T21:49:45.273Z,41.43
2018-04-12T21:52:12.370Z,39.37
2018-04-12T21:54:38.823Z,39.80
2018-04-12T21:57:05.177Z,44.70
2018-04-12T21:59:31.847Z,46.20
2018-04-12T22:01:58.208Z,46.07
2018-04-12T22:04:24.542Z,39.23
2018-04-12T22:06:50.886Z,64.00
2018-04-12T22:09:18.747Z,62.67
2018-04-12T22:11:45.059Z,65.77
2018-04-12T22:14:12.129Z,57.33
2018-04-12T22:16:38.461Z,57.13
2018-04-12T22:19:04.759Z,57.97
2018-04-12T22:21:31.071Z,55.13
2018-04-12T22:23:57.398Z,57.43
2018-04-12T22:26:23.731Z,59.30
2018-04-12T22:28:50.802Z,55.87
2018-04-12T22:31:17.147Z,54.90
2018-04-12T22:33:43.471Z,54.37
2018-04-12T22:36:10.563Z,54.97
2018-04-12T22:38:36.893Z,56.17
2018-04-12T22:41:03.234Z,55.77
2018-04-12T22:43:29.607Z,55.07
2018-04-12T22:45:56.722Z,56.37
2018-04-12T22:48:23.800Z,50.23
2018-04-12T22:50:50.107Z,58.50
2018-04-12T22:53:16.443Z,55.70
2018-04-12T22:55:42.754Z,53.60
2018-04-12T22:58:09.082Z,52.30
2018-04-12T23:00:35.398Z,61.50
2018-04-12T23:03:01.878Z,60.47
2018-04-12T23:05:28.910Z,56.80
2018-04-12T23:07:55.219Z,60.70
2018-04-12T23:10:22.291Z,54.97
2018-04-12T23:12:48.595Z,57.17
2018-04-12T23:15:14.956Z,56.80
2018-04-12T23:17:42.011Z,56.30
2018-04-12T23:20:08.330Z,55.47
2018-04-12T23:22:34.667Z,50.30
2018-04-12T23:25:00.978Z,52.17
2018-04-12T23:27:27.311Z,58.30
2018-04-12T23:29:54.393Z,56.17
2018-04-12T23:32:20.719Z,57.07
2018-04-12T23:34:47.068Z,57.10
2018-04-12T23:37:13.359Z,53.03
2018-04-12T23:39:39.679Z,61.57
2018-04-12T23:42:05.974Z,56.40
2018-04-12T23:44:33.082Z,56.50
2018-04-12T23:46:59.390Z,52.87
2018-04-12T23:49:25.816Z,54.90
2018-04-12T23:51:52.132Z,56.57
2018-04-12T23:54:18.463Z,57.07
2018-04-12T23:56:44.782Z,51.80
2018-04-12T23:59:11.090Z,56.50
